Pagrindinis puslapis
METAR-TAF:

METAR-TAF

Oro uostai :

Bagdadas, Irakas

platuma: 33-15-45N, ilguma: 44-14-04E, Aukštis: 35 m

Dabartinis oras

Ataskaita buvo paskelbta 1 valandą ir 22 minutes, ne 03:00 UTC
Vėjas 2 kt nuo kintamojo kryptimis
Temperatūra 9°C
Drėgmė 81%
Slėgis 1016 hPa
Matomumas: 9000 m

METAR: ORBI 220300Z VRB02KT 9000 NSC 09/06 Q1016 NOSIG

Laikas: 07:22 (04:22 UTC)

Prognozė

Ataskaita buvo paskelbta 6 valandos ir 22 minutes, ne 22:00 UTC
Prognozė galioja nuo 22 metu 00 UTC su 22 metu 24 UTC
Vėjas 8 kt iš Rytų/Pietryčių
Matomumas 10 km arba daugiau
nėra debesų žemiau 1500 m ir nėra kamuolinių lietaus debesų

TAF: ORBI 212200Z 2200/2224 12008KT CAVOK

Orai ataskaitas ir orų prognozės (METAR, TAF).

turimą stotys yra geltonos ir raudonos taškus žemėlapyje.

Perkelti pele per norėdami pamatyti stoties vardą.

Tada spustelėkite, norėdami matyti oro stebėjimo ir prognozės.

Norėdami pakeisti žemėlapį: spustelėkite ant žalios mygtukų su juodo kryžiaus žemyn,; žalią mygtuką su brūkšneliu, jei norite nutolinti; arba žalių rodyklių gretimoms žemėlapius.


METAR-TAF: